Time;durP1;ratioP1;P1;durP2;ratioP2;P2;SDS_P1;SDS_P2;PMS_P1;PMS_P2;Temp;Humidity;BMP_temperature;BMP_pressure;BME280_temperature;BME280_humidity;BME280_pressure;Samples;Min_cycle;Max_cycle;Signal;HPM_P1;HPM_P2
2024/02/19 00:01:59;;;;;;;3.55;2.63;;;8.60;99.90;;;;;;5082269;28;20036;-56
2024/02/19 00:04:25;;;;;;;4.63;3.03;;;8.60;99.90;;;;;;5073045;28;20027;-56
2024/02/19 00:06:51;;;;;;;4.18;2.92;;;8.70;99.90;;;;;;5069543;28;20035;-57
2024/02/19 00:09:18;;;;;;;3.33;2.65;;;8.60;99.90;;;;;;5069111;28;20057;-56
2024/02/19 00:11:44;;;;;;;3.33;2.67;;;8.60;99.90;;;;;;5075302;28;20485;-57
2024/02/19 00:14:09;;;;;;;3.00;2.63;;;8.60;99.90;;;;;;5068633;28;20047;-57
2024/02/19 00:16:35;;;;;;;4.28;3.22;;;8.70;99.90;;;;;;5075210;28;20661;-56
2024/02/19 00:19:00;;;;;;;4.75;3.10;;;8.70;99.90;;;;;;5074500;28;20035;-58
2024/02/19 00:21:26;;;;;;;3.88;2.83;;;8.70;99.90;;;;;;5067972;28;20058;-57
2024/02/19 00:23:52;;;;;;;3.75;2.50;;;8.60;99.90;;;;;;5074863;28;20027;-57
2024/02/19 00:26:18;;;;;;;4.22;2.75;;;8.50;99.90;;;;;;5083427;28;20048;-57
2024/02/19 00:28:45;;;;;;;5.60;2.85;;;8.50;99.90;;;;;;5076159;28;20109;-56
2024/02/19 00:31:11;;;;;;;4.93;3.25;;;8.40;99.90;;;;;;5070753;28;20064;-55
2024/02/19 00:33:37;;;;;;;4.25;3.10;;;8.30;99.90;;;;;;5077022;28;20450;-57
2024/02/19 00:36:04;;;;;;;6.03;4.05;;;8.20;99.90;;;;;;5077169;28;20035;-59
2024/02/19 00:38:30;;;;;;;4.95;3.40;;;8.30;99.90;;;;;;5077968;28;20059;-57
2024/02/19 00:40:56;;;;;;;6.72;4.10;;;8.20;99.90;;;;;;5081041;28;20443;-57
2024/02/19 00:43:22;;;;;;;5.68;3.85;;;8.20;99.90;;;;;;5073817;28;20385;-58
2024/02/19 00:45:47;;;;;;;6.30;4.47;;;8.20;99.90;;;;;;5069046;28;20027;-57
2024/02/19 00:48:13;;;;;;;6.32;4.05;;;8.20;99.90;;;;;;5078777;28;20099;-57
2024/02/19 00:50:38;;;;;;;6.25;4.25;;;8.10;99.90;;;;;;5076355;28;20476;-57
2024/02/19 00:53:04;;;;;;;6.40;4.10;;;8.10;99.90;;;;;;5077032;28;20032;-57
2024/02/19 00:55:30;;;;;;;6.35;4.10;;;8.10;99.90;;;;;;5084017;28;20682;-56
2024/02/19 00:57:55;;;;;;;8.88;5.47;;;8.10;99.90;;;;;;5081821;28;20103;-56
2024/02/19 01:00:22;;;;;;;9.35;5.60;;;8.10;99.90;;;;;;5076013;28;20023;-57
2024/02/19 01:02:48;;;;;;;11.30;6.75;;;8.10;99.90;;;;;;5067516;28;20099;-57
2024/02/19 01:05:14;;;;;;;8.75;6.05;;;8.00;99.90;;;;;;5070793;28;20115;-56
2024/02/19 01:07:40;;;;;;;13.63;6.80;;;8.00;99.90;;;;;;5082271;28;20026;-56
2024/02/19 01:10:06;;;;;;;10.75;6.70;;;8.00;99.90;;;;;;5076498;28;20020;-56
2024/02/19 01:12:31;;;;;;;10.38;6.43;;;8.00;99.90;;;;;;5070959;28;20013;-57
2024/02/19 01:14:57;;;;;;;9.63;6.60;;;8.00;99.90;;;;;;5073777;28;20385;-57
2024/02/19 01:17:22;;;;;;;10.90;7.07;;;7.90;99.90;;;;;;5084049;28;20064;-57
2024/02/19 01:19:48;;;;;;;12.55;7.43;;;7.90;99.90;;;;;;5074874;28;20056;-55
2024/02/19 01:22:14;;;;;;;10.43;6.82;;;7.90;99.90;;;;;;5073706;28;20027;-55
2024/02/19 01:24:39;;;;;;;13.50;7.63;;;7.90;99.90;;;;;;5067142;28;20027;-56
2024/02/19 01:27:06;;;;;;;11.88;7.13;;;7.80;99.90;;;;;;5080741;28;20304;-57
2024/02/19 01:29:32;;;;;;;15.60;8.27;;;7.80;99.90;;;;;;5082553;28;20050;-56
2024/02/19 01:31:57;;;;;;;12.57;7.63;;;7.90;99.90;;;;;;5075808;28;20052;-56
2024/02/19 01:34:23;;;;;;;12.65;8.07;;;7.80;99.90;;;;;;5086574;28;20116;-56
2024/02/19 01:36:49;;;;;;;14.98;8.88;;;7.80;99.90;;;;;;5072779;28;20032;-57
2024/02/19 01:39:17;;;;;;;14.63;7.80;;;7.80;99.90;;;;;;5080909;28;20024;-57
2024/02/19 01:41:43;;;;;;;15.07;8.27;;;7.80;99.90;;;;;;5079287;28;20020;-56
2024/02/19 01:44:08;;;;;;;15.40;7.95;;;7.70;99.90;;;;;;5083544;28;20024;-56
2024/02/19 01:46:38;;;;;;;16.83;8.13;;;7.80;99.90;;;;;;5071343;28;20382;-56
2024/02/19 01:49:04;;;;;;;14.00;7.53;;;7.70;99.90;;;;;;5082340;28;20389;-57
2024/02/19 01:51:30;;;;;;;14.43;8.00;;;7.70;99.90;;;;;;5076235;28;20020;-58
2024/02/19 01:53:57;;;;;;;13.57;6.70;;;7.70;99.90;;;;;;5083796;28;20169;-57
2024/02/19 01:56:23;;;;;;;15.40;6.55;;;7.60;99.90;;;;;;5075084;28;20024;-57
2024/02/19 01:58:49;;;;;;;8.45;4.80;;;7.60;99.90;;;;;;5081539;28;20020;-57
2024/02/19 02:01:15;;;;;;;9.48;5.18;;;7.60;99.90;;;;;;5063711;28;20082;-57
2024/02/19 02:03:43;;;;;;;9.27;4.68;;;7.50;99.90;;;;;;5076163;28;20031;-57
2024/02/19 02:06:09;;;;;;;9.05;4.53;;;7.50;99.90;;;;;;5073174;28;20042;-57
2024/02/19 02:08:40;;;;;;;4.32;3.15;;;7.40;99.90;;;;;;5079322;28;20174;-57
2024/02/19 02:11:09;;;;;;;3.85;2.88;;;7.40;99.90;;;;;;5071116;28;20232;-57
2024/02/19 02:13:35;;;;;;;3.50;2.58;;;7.40;99.90;;;;;;5071576;28;20029;-57
2024/02/19 02:16:05;;;;;;;5.40;2.33;;;7.30;99.90;;;;;;5069442;28;20021;-57
2024/02/19 02:18:31;;;;;;;3.00;2.27;;;7.30;99.90;;;;;;5070743;28;20020;-57
2024/02/19 02:20:57;;;;;;;3.15;2.25;;;7.20;99.90;;;;;;5076908;28;20376;-58
2024/02/19 02:23:26;;;;;;;3.75;2.65;;;7.20;99.90;;;;;;5079960;28;20024;-57
2024/02/19 02:25:55;;;;;;;4.27;2.40;;;7.30;99.90;;;;;;5074647;28;20020;-57
2024/02/19 02:28:24;;;;;;;3.75;2.60;;;7.20;99.90;;;;;;5076671;28;20242;-58
2024/02/19 02:30:50;;;;;;;3.90;2.28;;;7.20;99.90;;;;;;5075947;28;20033;-58
2024/02/19 02:33:17;;;;;;;4.30;2.92;;;7.20;99.90;;;;;;5081279;28;20385;-57
2024/02/19 02:35:42;;;;;;;5.88;3.10;;;7.20;99.90;;;;;;5074693;28;20028;-57
2024/02/19 02:38:08;;;;;;;5.22;3.10;;;7.30;99.90;;;;;;5072896;28;20031;-58
2024/02/19 02:40:35;;;;;;;9.27;3.80;;;7.30;99.90;;;;;;5073164;28;20017;-57
2024/02/19 02:43:01;;;;;;;5.82;3.47;;;7.30;99.90;;;;;;5076580;28;20017;-57
2024/02/19 02:45:26;;;;;;;5.70;3.70;;;7.30;99.90;;;;;;5074175;28;20020;-57
2024/02/19 02:47:52;;;;;;;7.93;4.25;;;7.30;99.90;;;;;;5079194;28;20212;-57
2024/02/19 02:50:17;;;;;;;9.32;4.95;;;7.40;99.90;;;;;;5080586;28;20496;-58
2024/02/19 02:52:44;;;;;;;10.90;5.03;;;7.40;99.90;;;;;;5079098;28;20504;-57
2024/02/19 02:55:09;;;;;;;13.95;6.57;;;7.40;99.90;;;;;;5077245;28;20482;-57
2024/02/19 02:57:35;;;;;;;12.02;6.40;;;7.40;99.90;;;;;;5083043;28;20030;-58
2024/02/19 03:00:01;;;;;;;14.27;6.75;;;7.40;99.90;;;;;;5069406;28;20027;-57
2024/02/19 03:02:26;;;;;;;16.02;7.38;;;7.40;99.90;;;;;;5078728;28;20020;-58
2024/02/19 03:04:52;;;;;;;16.02;7.93;;;7.40;99.90;;;;;;5075022;28;20092;-57
2024/02/19 03:07:17;;;;;;;14.13;7.25;;;7.40;99.90;;;;;;5069711;28;20462;-57
2024/02/19 03:09:43;;;;;;;9.57;5.00;;;7.40;99.90;;;;;;5079653;28;20047;-57
2024/02/19 03:12:08;;;;;;;8.35;4.00;;;7.40;99.90;;;;;;5075492;28;20094;-57
2024/02/19 03:14:34;;;;;;;4.45;3.13;;;7.40;99.90;;;;;;5069558;28;20470;-57
2024/02/19 03:17:00;;;;;;;3.42;2.13;;;7.40;99.90;;;;;;5069530;28;20112;-57
2024/02/19 03:19:26;;;;;;;3.05;1.45;;;7.40;99.90;;;;;;5074653;28;20170;-57
2024/02/19 03:21:52;;;;;;;2.25;1.20;;;7.30;99.90;;;;;;5073059;28;20016;-57
2024/02/19 03:24:17;;;;;;;1.13;1.02;;;7.30;99.90;;;;;;5076915;28;20032;-57
2024/02/19 03:26:43;;;;;;;1.90;1.00;;;7.30;99.90;;;;;;5080860;28;20020;-57
2024/02/19 03:29:13;;;;;;;2.25;1.33;;;7.30;99.90;;;;;;5074315;28;20108;-58
2024/02/19 03:31:39;;;;;;;2.22;1.23;;;7.30;99.90;;;;;;5072885;28;20061;-58
2024/02/19 03:34:05;;;;;;;1.40;1.00;;;7.30;99.90;;;;;;5069257;28;20029;-58
2024/02/19 03:36:31;;;;;;;2.30;0.93;;;7.20;99.90;;;;;;5069706;28;20153;-58
2024/02/19 03:38:57;;;;;;;1.13;0.88;;;7.20;99.90;;;;;;5067212;28;20090;-58
2024/02/19 03:41:22;;;;;;;2.30;0.80;;;7.10;99.90;;;;;;5070397;28;20581;-58
2024/02/19 03:43:48;;;;;;;1.27;0.88;;;7.10;99.90;;;;;;5078688;28;20031;-58
2024/02/19 03:46:14;;;;;;;3.33;0.82;;;7.10;99.90;;;;;;5069896;28;20044;-58
2024/02/19 03:48:40;;;;;;;1.02;0.93;;;7.10;99.90;;;;;;5072721;28;20048;-58
2024/02/19 03:51:05;;;;;;;1.10;1.00;;;7.10;99.90;;;;;;5069731;28;20479;-58
2024/02/19 03:53:31;;;;;;;2.05;1.60;;;7.00;99.90;;;;;;5069080;28;20176;-58
2024/02/19 03:55:58;;;;;;;3.83;1.13;;;6.90;99.90;;;;;;5068469;28;20040;-58
2024/02/19 03:58:24;;;;;;;3.45;1.20;;;7.00;99.90;;;;;;5068458;28;20056;-58
2024/02/19 04:00:50;;;;;;;4.60;1.55;;;6.90;99.90;;;;;;5068562;28;20101;-58
2024/02/19 04:03:16;;;;;;;3.20;1.40;;;6.90;99.90;;;;;;5069841;28;20486;-58
2024/02/19 04:05:42;;;;;;;4.32;1.17;;;6.90;99.90;;;;;;5073797;28;20038;-58
2024/02/19 04:08:08;;;;;;;5.90;1.30;;;6.90;99.90;;;;;;5074469;28;20158;-58
2024/02/19 04:10:33;;;;;;;3.13;1.55;;;6.80;99.90;;;;;;5076058;28;20452;-58
2024/02/19 04:12:59;;;;;;;4.72;1.38;;;6.80;99.90;;;;;;5077147;28;20052;-58
2024/02/19 04:15:27;;;;;;;5.90;1.38;;;6.80;99.90;;;;;;5071716;28;20412;-58
2024/02/19 04:17:53;;;;;;;2.03;1.35;;;6.80;99.90;;;;;;5077576;28;20040;-58
2024/02/19 04:20:18;;;;;;;4.22;1.80;;;6.80;99.90;;;;;;5068548;28;20017;-57
2024/02/19 04:22:44;;;;;;;4.43;2.00;;;6.90;99.90;;;;;;5068510;28;20052;-58
2024/02/19 04:25:09;;;;;;;3.05;2.00;;;6.80;99.90;;;;;;5076268;28;20104;-57
2024/02/19 04:27:35;;;;;;;5.15;1.73;;;6.80;99.90;;;;;;5074478;28;20087;-57
2024/02/19 04:30:00;;;;;;;3.85;2.03;;;6.80;99.90;;;;;;5072335;28;20223;-57
2024/02/19 04:32:26;;;;;;;7.00;1.88;;;6.80;99.90;;;;;;5075132;28;20021;-57
2024/02/19 04:34:55;;;;;;;5.28;1.90;;;6.70;99.90;;;;;;5075915;28;20020;-57
2024/02/19 04:37:21;;;;;;;3.60;1.58;;;6.70;99.90;;;;;;5072220;28;20021;-57
2024/02/19 04:39:47;;;;;;;8.23;2.10;;;6.70;99.90;;;;;;5068199;28;20028;-57
2024/02/19 04:42:12;;;;;;;4.07;1.65;;;6.70;99.90;;;;;;5068111;28;20082;-57
2024/02/19 04:44:39;;;;;;;8.43;1.73;;;6.70;99.90;;;;;;5075834;28;20024;-57
2024/02/19 04:47:05;;;;;;;4.55;1.60;;;6.70;99.90;;;;;;5071724;28;20382;-57
2024/02/19 04:49:30;;;;;;;3.85;1.75;;;6.60;99.90;;;;;;5075739;28;20016;-57
2024/02/19 04:51:56;;;;;;;11.30;1.92;;;6.60;99.90;;;;;;5072065;28;20154;-57
2024/02/19 04:54:21;;;;;;;7.85;1.77;;;6.60;99.90;;;;;;5075621;28;20025;-57
2024/02/19 04:56:47;;;;;;;6.13;1.23;;;6.50;99.90;;;;;;5068539;28;20093;-57
2024/02/19 04:59:12;;;;;;;7.97;1.85;;;6.50;99.90;;;;;;5069082;28;20125;-57
2024/02/19 05:01:38;;;;;;;7.18;1.85;;;6.40;99.90;;;;;;5070195;28;20391;-57
2024/02/19 05:04:03;;;;;;;4.72;1.38;;;6.40;99.90;;;;;;5066244;28;20025;-57
2024/02/19 05:06:29;;;;;;;3.45;1.05;;;6.40;99.90;;;;;;5072771;28;20027;-57
2024/02/19 05:08:55;;;;;;;7.70;1.92;;;6.30;99.90;;;;;;5070961;28;20021;-56
2024/02/19 05:11:21;;;;;;;10.48;3.15;;;6.30;99.90;;;;;;5072899;28;20028;-57
2024/02/19 05:13:46;;;;;;;2.97;1.10;;;6.30;99.90;;;;;;5068598;28;20031;-56
2024/02/19 05:16:12;;;;;;;6.72;1.23;;;6.30;99.90;;;;;;5074204;28;20029;-56
2024/02/19 05:18:37;;;;;;;3.20;1.10;;;6.20;99.90;;;;;;5067000;28;20076;-56
2024/02/19 05:21:03;;;;;;;2.30;1.00;;;6.20;99.90;;;;;;5074143;28;20056;-56
2024/02/19 05:23:29;;;;;;;6.63;1.20;;;6.10;99.90;;;;;;5070653;28;20096;-56
2024/02/19 05:25:55;;;;;;;2.78;0.80;;;6.10;99.90;;;;;;5062569;28;20042;-56
2024/02/19 05:28:20;;;;;;;1.90;0.70;;;6.20;99.90;;;;;;5071692;28;20174;-56
2024/02/19 05:30:46;;;;;;;1.80;0.63;;;6.20;99.90;;;;;;5072166;28;20029;-56
2024/02/19 05:33:14;;;;;;;2.85;0.98;;;6.20;99.90;;;;;;5072035;28;20398;-56
2024/02/19 05:35:39;;;;;;;3.72;0.50;;;6.10;99.90;;;;;;5076540;28;20031;-56
2024/02/19 05:38:05;;;;;;;2.67;0.73;;;6.20;99.90;;;;;;5070657;28;20397;-56
2024/02/19 05:40:30;;;;;;;1.83;0.68;;;6.20;99.90;;;;;;5072599;28;20066;-56
2024/02/19 05:42:56;;;;;;;2.03;0.90;;;6.10;99.90;;;;;;5069497;28;20108;-55
2024/02/19 05:45:21;;;;;;;3.30;0.70;;;6.10;99.90;;;;;;5072545;28;20432;-55
2024/02/19 05:47:47;;;;;;;6.20;0.82;;;6.10;99.90;;;;;;5071560;28;20036;-56
2024/02/19 05:50:14;;;;;;;1.38;0.70;;;6.10;99.90;;;;;;5071332;28;20428;-56
2024/02/19 05:52:40;;;;;;;2.15;0.73;;;6.10;99.90;;;;;;5072636;28;20409;-56
2024/02/19 05:55:09;;;;;;;2.85;0.68;;;6.10;99.90;;;;;;5070166;28;20024;-56
2024/02/19 05:57:35;;;;;;;0.85;0.68;;;6.10;99.90;;;;;;5069441;28;20012;-56
2024/02/19 06:00:00;;;;;;;1.90;0.80;;;6.20;99.90;;;;;;5067441;28;20021;-56
2024/02/19 06:02:26;;;;;;;0.73;0.65;;;6.10;99.90;;;;;;5073321;28;20130;-56
2024/02/19 06:04:51;;;;;;;2.08;0.70;;;6.20;99.90;;;;;;5069568;28;20510;-56
2024/02/19 06:07:17;;;;;;;4.13;1.10;;;6.10;99.90;;;;;;5071208;28;20401;-56
2024/02/19 06:09:42;;;;;;;5.10;1.17;;;6.20;99.90;;;;;;5072197;28;20048;-56
2024/02/19 06:12:09;;;;;;;5.82;0.90;;;6.20;99.90;;;;;;5068727;28;20032;-56
2024/02/19 06:14:36;;;;;;;5.60;1.35;;;6.20;99.90;;;;;;5069097;28;20525;-56
2024/02/19 06:17:01;;;;;;;2.38;1.27;;;6.20;99.90;;;;;;5065664;28;20032;-56
2024/02/19 06:19:27;;;;;;;5.10;1.38;;;6.20;99.90;;;;;;5074298;28;20024;-56
2024/02/19 06:21:53;;;;;;;2.03;1.35;;;6.20;99.90;;;;;;5069489;28;20286;-56
2024/02/19 06:24:18;;;;;;;2.67;1.55;;;6.30;99.90;;;;;;5075020;28;20028;-56
2024/02/19 06:26:44;;;;;;;4.40;1.55;;;6.30;99.90;;;;;;5071292;28;20311;-56
2024/02/19 06:29:10;;;;;;;4.05;1.38;;;6.30;99.90;;;;;;5069380;28;20051;-56
2024/02/19 06:31:37;;;;;;;7.70;2.28;;;6.30;99.90;;;;;;5078869;28;20027;-56
2024/02/19 06:34:03;;;;;;;3.17;1.83;;;6.30;99.90;;;;;;5070726;28;20048;-56
2024/02/19 06:36:28;;;;;;;4.85;1.77;;;6.30;99.90;;;;;;5076393;28;20088;-56
2024/02/19 06:38:54;;;;;;;3.75;1.88;;;6.30;99.90;;;;;;5071833;28;20041;-56
2024/02/19 06:41:19;;;;;;;4.40;1.80;;;6.40;99.90;;;;;;5073234;28;20017;-56
2024/02/19 06:43:45;;;;;;;3.67;2.00;;;6.30;99.90;;;;;;5073540;28;20040;-56
2024/02/19 06:46:14;;;;;;;7.03;1.75;;;6.30;99.90;;;;;;5070302;28;20020;-56
2024/02/19 06:48:41;;;;;;;3.58;1.65;;;6.30;99.90;;;;;;5068161;28;20028;-56
2024/02/19 06:51:06;;;;;;;2.85;1.58;;;6.30;99.90;;;;;;5070560;28;20028;-56
2024/02/19 06:53:32;;;;;;;3.30;1.48;;;6.40;99.90;;;;;;5072682;28;20016;-56
2024/02/19 06:55:58;;;;;;;6.32;1.77;;;6.40;99.90;;;;;;5070154;28;20540;-56
2024/02/19 06:58:23;;;;;;;3.70;1.70;;;6.40;99.90;;;;;;5075282;28;20025;-56
2024/02/19 07:00:49;;;;;;;2.33;1.70;;;6.40;99.90;;;;;;5075387;28;20128;-56
2024/02/19 07:03:15;;;;;;;2.83;1.73;;;6.40;99.90;;;;;;5073203;28;20021;-56
2024/02/19 07:05:42;;;;;;;4.20;2.20;;;6.40;99.90;;;;;;5074753;28;20020;-56
2024/02/19 07:08:07;;;;;;;8.32;2.10;;;6.50;99.90;;;;;;5072891;28;20181;-56
2024/02/19 07:10:33;;;;;;;4.72;2.00;;;6.50;99.90;;;;;;5069640;28;20123;-56
2024/02/19 07:12:58;;;;;;;5.82;1.73;;;6.50;99.90;;;;;;5072368;28;20032;-56
2024/02/19 07:15:24;;;;;;;3.50;1.45;;;6.60;99.90;;;;;;5071763;28;20036;-56
2024/02/19 07:17:50;;;;;;;6.63;2.00;;;6.60;99.90;;;;;;5072408;28;20637;-56
2024/02/19 07:20:16;;;;;;;3.10;1.67;;;6.60;99.90;;;;;;5071105;28;20024;-56
2024/02/19 07:22:41;;;;;;;5.35;1.70;;;6.50;99.90;;;;;;5074224;28;20035;-57
2024/02/19 07:25:07;;;;;;;3.20;1.65;;;6.60;99.90;;;;;;5074159;28;20446;-56
2024/02/19 07:27:32;;;;;;;3.17;1.60;;;6.60;99.90;;;;;;5071779;28;20127;-56
2024/02/19 07:29:58;;;;;;;3.15;1.60;;;6.70;99.90;;;;;;5068231;28;20082;-56
2024/02/19 07:32:23;;;;;;;3.17;2.00;;;6.80;99.90;;;;;;5070850;28;20033;-57
2024/02/19 07:34:49;;;;;;;3.85;1.60;;;6.80;99.90;;;;;;5070401;28;20032;-56
2024/02/19 07:37:14;;;;;;;3.25;1.77;;;6.80;99.90;;;;;;5069815;28;20060;-57
2024/02/19 07:39:41;;;;;;;6.20;2.30;;;6.90;99.90;;;;;;5071895;28;20028;-56
2024/02/19 07:42:07;;;;;;;5.47;2.13;;;6.90;99.90;;;;;;5069425;28;20028;-56
2024/02/19 07:44:33;;;;;;;3.60;1.95;;;6.90;99.90;;;;;;5071043;28;20096;-56
2024/02/19 07:46:59;;;;;;;3.55;1.95;;;6.90;99.90;;;;;;5069249;28;20017;-56
2024/02/19 07:49:24;;;;;;;3.65;1.80;;;6.90;99.90;;;;;;5074493;28;20085;-56
2024/02/19 07:51:50;;;;;;;4.75;2.13;;;7.00;99.90;;;;;;5072068;28;20097;-56
2024/02/19 07:54:15;;;;;;;3.00;2.35;;;7.00;99.90;;;;;;5068971;28;20059;-56
2024/02/19 07:56:41;;;;;;;3.85;2.33;;;7.00;99.90;;;;;;5070280;28;20089;-56
2024/02/19 07:59:06;;;;;;;9.15;2.50;;;7.00;99.90;;;;;;5069252;28;20533;-56
2024/02/19 08:01:32;;;;;;;5.07;2.53;;;7.00;99.90;;;;;;5070947;28;20032;-56
2024/02/19 08:03:57;;;;;;;5.13;2.47;;;7.00;99.90;;;;;;5067639;28;20024;-56
2024/02/19 08:06:23;;;;;;;3.75;1.92;;;7.00;99.90;;;;;;5068391;28;20091;-56
2024/02/19 08:08:48;;;;;;;4.65;1.98;;;7.00;99.90;;;;;;5070763;28;20058;-56
2024/02/19 08:11:14;;;;;;;4.03;1.92;;;7.00;99.90;;;;;;5068865;28;20131;-56
2024/02/19 08:13:41;;;;;;;3.70;1.63;;;7.10;99.90;;;;;;5072244;28;20024;-56
2024/02/19 08:16:07;;;;;;;2.00;1.65;;;7.20;99.90;;;;;;5068678;28;20115;-56
2024/02/19 08:18:32;;;;;;;2.05;1.20;;;7.40;99.90;;;;;;5072129;28;20123;-56
2024/02/19 08:20:58;;;;;;;3.20;1.55;;;7.40;99.90;;;;;;5072493;28;20017;-56
2024/02/19 08:23:23;;;;;;;1.70;1.10;;;7.40;99.90;;;;;;5069088;28;20052;-56
2024/02/19 08:25:49;;;;;;;1.40;1.05;;;7.40;99.90;;;;;;5067169;28;20025;-56
2024/02/19 08:28:14;;;;;;;2.00;1.38;;;7.40;99.90;;;;;;5068881;28;20037;-56
2024/02/19 08:30:40;;;;;;;1.92;1.20;;;7.50;99.90;;;;;;5071240;28;20012;-56
2024/02/19 08:33:05;;;;;;;4.35;1.30;;;7.40;99.90;;;;;;5074732;28;20036;-56
2024/02/19 08:35:31;;;;;;;2.60;1.30;;;7.40;99.90;;;;;;5067218;28;20032;-56
2024/02/19 08:37:58;;;;;;;1.45;1.05;;;7.40;99.90;;;;;;5069401;28;20025;-56
2024/02/19 08:40:24;;;;;;;2.20;1.38;;;7.50;99.90;;;;;;5067662;28;20036;-56
2024/02/19 08:42:50;;;;;;;1.92;1.20;;;7.50;99.90;;;;;;5069673;28;20035;-57
2024/02/19 08:45:16;;;;;;;2.83;1.60;;;7.40;99.90;;;;;;5069506;28;20021;-56
2024/02/19 08:47:42;;;;;;;2.97;1.70;;;7.50;99.90;;;;;;5067816;28;20092;-56
2024/02/19 08:50:08;;;;;;;2.65;2.10;;;7.50;99.90;;;;;;5068010;28;20428;-56
2024/02/19 08:52:33;;;;;;;5.70;2.30;;;7.50;99.90;;;;;;5068126;28;20029;-56
2024/02/19 08:54:59;;;;;;;4.97;1.70;;;7.50;99.90;;;;;;5067742;28;20035;-56
2024/02/19 08:57:24;;;;;;;3.97;2.17;;;7.60;99.90;;;;;;5069898;28;20033;-56
2024/02/19 08:59:50;;;;;;;4.22;1.88;;;7.60;99.90;;;;;;5069136;28;20067;-56
2024/02/19 09:02:16;;;;;;;5.32;2.55;;;7.70;99.90;;;;;;5070692;28;20389;-56
2024/02/19 09:04:45;;;;;;;6.03;2.40;;;7.70;99.90;;;;;;5070239;28;20388;-55
2024/02/19 09:07:14;;;;;;;4.25;2.45;;;7.80;99.90;;;;;;5069311;28;20052;-55
2024/02/19 09:09:43;;;;;;;4.18;2.28;;;7.90;99.90;;;;;;5070446;28;20490;-55
2024/02/19 09:12:08;;;;;;;2.78;2.03;;;8.00;99.90;;;;;;5070283;28;20029;-57
2024/02/19 09:14:34;;;;;;;3.25;2.08;;;8.10;99.90;;;;;;5070981;28;20030;-56
2024/02/19 09:17:01;;;;;;;1.88;1.50;;;8.00;99.90;;;;;;5069216;28;20029;-56
2024/02/19 09:19:26;;;;;;;2.17;1.70;;;7.90;99.90;;;;;;5069111;28;20043;-56
2024/02/19 09:21:52;;;;;;;4.65;1.90;;;8.00;99.90;;;;;;5070404;28;20474;-56
2024/02/19 09:24:17;;;;;;;3.75;2.10;;;7.90;99.90;;;;;;5067400;28;20147;-56
2024/02/19 09:26:43;;;;;;;3.15;2.15;;;7.90;99.90;;;;;;5067660;28;20426;-56
2024/02/19 09:29:09;;;;;;;3.97;2.28;;;7.90;99.90;;;;;;5069371;28;20377;-56
2024/02/19 09:31:34;;;;;;;3.95;2.42;;;7.90;99.90;;;;;;5067411;28;20326;-56
2024/02/19 09:34:00;;;;;;;7.97;2.38;;;8.00;99.90;;;;;;5068748;28;20029;-56
2024/02/19 09:36:26;;;;;;;5.28;2.55;;;8.00;99.90;;;;;;5067372;28;20100;-57
2024/02/19 09:38:54;;;;;;;5.43;2.42;;;7.90;99.90;;;;;;5069523;28;20025;-56
2024/02/19 09:41:20;;;;;;;3.90;2.28;;;8.00;99.90;;;;;;5069837;28;20017;-57
2024/02/19 09:43:46;;;;;;;6.25;2.42;;;8.00;99.90;;;;;;5067599;28;20024;-57
2024/02/19 09:46:17;;;;;;;5.28;2.60;;;8.10;99.90;;;;;;5061145;28;20093;-56
2024/02/19 09:48:48;;;;;;;3.95;2.10;;;8.10;99.90;;;;;;5067328;28;20513;-56
2024/02/19 09:51:20;;;;;;;3.45;2.47;;;8.10;99.90;;;;;;5068435;28;20031;-56
2024/02/19 09:53:51;;;;;;;4.00;1.98;;;8.10;99.90;;;;;;5070541;28;20077;-56
2024/02/19 09:56:18;;;;;;;4.53;2.58;;;8.20;99.90;;;;;;5073302;28;20435;-57
2024/02/19 09:58:46;;;;;;;4.38;2.42;;;8.10;99.90;;;;;;5070853;28;20028;-56
2024/02/19 10:01:12;;;;;;;5.53;3.03;;;8.10;99.90;;;;;;5072192;28;20255;-57
2024/02/19 10:03:38;;;;;;;3.25;2.50;;;8.10;99.90;;;;;;5071975;28;20391;-57
2024/02/19 10:06:06;;;;;;;5.55;2.60;;;8.10;99.90;;;;;;5071418;28;20085;-56
2024/02/19 10:08:32;;;;;;;6.95;2.80;;;8.10;99.90;;;;;;5072302;28;20033;-56
2024/02/19 10:11:00;;;;;;;5.28;2.50;;;8.20;99.90;;;;;;5069850;28;20016;-56
2024/02/19 10:13:26;;;;;;;8.77;3.85;;;8.30;99.90;;;;;;5072342;28;20028;-56
2024/02/19 10:15:52;;;;;;;5.25;2.55;;;8.30;99.90;;;;;;5071245;28;20032;-56
2024/02/19 10:18:19;;;;;;;3.65;2.50;;;8.40;99.90;;;;;;5071037;28;20161;-56
2024/02/19 10:20:47;;;;;;;8.07;2.72;;;8.40;99.90;;;;;;5072342;28;20398;-57
2024/02/19 10:23:13;;;;;;;8.48;2.42;;;8.50;99.90;;;;;;5071456;28;20020;-57
2024/02/19 10:25:39;;;;;;;2.95;2.33;;;8.40;99.90;;;;;;5070913;28;20013;-56
2024/02/19 10:28:08;;;;;;;3.20;2.40;;;8.40;99.90;;;;;;5070832;28;20017;-57
2024/02/19 10:30:34;;;;;;;5.70;2.42;;;8.50;99.90;;;;;;5070377;28;20028;-57
2024/02/19 10:32:59;;;;;;;5.40;2.58;;;8.40;99.90;;;;;;5070659;28;20021;-57
2024/02/19 10:35:25;;;;;;;5.65;2.90;;;8.40;99.90;;;;;;5071074;28;20036;-57
2024/02/19 10:37:52;;;;;;;5.35;2.42;;;8.40;99.90;;;;;;5070208;28;20028;-56
2024/02/19 10:40:18;;;;;;;4.18;2.35;;;8.30;99.90;;;;;;5070475;28;20059;-57
2024/02/19 10:42:47;;;;;;;5.00;2.97;;;8.40;99.90;;;;;;5072116;28;20024;-57
2024/02/19 10:45:13;;;;;;;3.63;2.45;;;8.40;99.90;;;;;;5070900;28;20009;-57
2024/02/19 10:47:41;;;;;;;4.55;2.30;;;8.50;99.90;;;;;;5071372;28;20555;-56
2024/02/19 10:50:07;;;;;;;6.60;1.83;;;8.50;99.90;;;;;;5070712;28;20020;-57
2024/02/19 10:52:33;;;;;;;5.10;2.30;;;8.50;99.90;;;;;;5070682;28;20025;-56
2024/02/19 10:55:00;;;;;;;3.08;2.28;;;8.50;99.90;;;;;;5069769;28;20319;-57
2024/02/19 10:57:32;;;;;;;5.38;2.33;;;8.50;99.90;;;;;;5070360;28;20474;-57
2024/02/19 11:00:09;;;;;;;3.80;2.35;;;8.60;99.90;;;;;;5067702;28;20181;-57
2024/02/19 11:02:36;;;;;;;10.18;3.42;;;8.60;99.90;;;;;;5067279;28;20063;-57
2024/02/19 11:05:02;;;;;;;3.80;2.55;;;8.60;99.90;;;;;;5069672;28;20239;-57
2024/02/19 11:07:32;;;;;;;4.43;2.38;;;8.60;99.90;;;;;;5069811;28;20023;-57
2024/02/19 11:09:58;;;;;;;6.50;2.50;;;8.60;99.90;;;;;;5067696;28;20462;-57
2024/02/19 11:12:25;;;;;;;7.78;2.55;;;9.50;99.90;;;;;;5070117;28;20161;-58
2024/02/19 11:14:52;;;;;;;3.80;2.60;;;9.80;99.90;;;;;;5069381;28;20059;-58
2024/02/19 11:17:18;;;;;;;3.30;1.80;;;10.50;99.90;;;;;;5069516;28;20028;-58
2024/02/19 11:19:43;;;;;;;3.42;1.52;;;11.00;99.90;;;;;;5069567;28;20056;-58
2024/02/19 11:22:11;;;;;;;3.53;1.20;;;11.40;99.90;;;;;;5081819;28;20341;-59
2024/02/19 11:24:38;;;;;;;3.10;1.20;;;11.70;99.90;;;;;;5080010;28;20103;-58
2024/02/19 11:27:06;;;;;;;4.85;1.60;;;11.70;99.90;;;;;;5076737;28;20058;-58
2024/02/19 11:29:32;;;;;;;2.40;1.10;;;11.50;99.90;;;;;;5069832;28;20020;-58
2024/02/19 11:32:02;;;;;;;8.05;1.50;;;11.20;99.90;;;;;;5081592;28;20035;-58
2024/02/19 11:34:28;;;;;;;3.25;1.58;;;11.10;99.90;;;;;;5081209;28;20390;-58
2024/02/19 11:37:05;;;;;;;4.05;1.77;;;11.00;99.90;;;;;;5069260;28;20282;-58
2024/02/19 11:39:32;;;;;;;9.73;2.25;;;11.10;99.90;;;;;;5068269;28;20028;-58
2024/02/19 11:41:58;;;;;;;3.13;1.02;;;11.10;99.90;;;;;;5068519;28;20488;-58
2024/02/19 11:44:25;;;;;;;2.97;1.00;;;11.50;99.90;;;;;;5078544;28;20477;-58
2024/02/19 11:46:52;;;;;;;6.65;1.27;;;11.70;99.90;;;;;;5086625;28;20027;-58
2024/02/19 11:49:19;;;;;;;2.75;1.05;;;11.90;99.90;;;;;;5074138;28;20024;-57
2024/02/19 11:51:45;;;;;;;3.10;0.98;;;11.90;99.90;;;;;;5084519;28;20032;-58
2024/02/19 11:54:11;;;;;;;2.95;1.20;;;12.20;99.90;;;;;;5067418;28;20477;-58
2024/02/19 11:56:57;;;;;;;2.53;1.20;;;12.30;99.90;;;;;;5076962;28;20426;-57
2024/02/19 11:59:22;;;;;;;3.25;1.30;;;12.50;99.90;;;;;;5088225;28;20412;-57
2024/02/19 12:01:57;;;;;;;4.15;0.90;;;12.70;99.90;;;;;;5079762;28;20025;-57
2024/02/19 12:04:26;;;;;;;2.58;1.00;;;12.80;99.90;;;;;;5073690;28;20028;-57
2024/02/19 12:06:51;;;;;;;5.97;1.48;;;12.60;99.90;;;;;;5079169;28;20024;-57
2024/02/19 12:09:17;;;;;;;3.30;1.08;;;12.40;99.90;;;;;;5072726;28;20031;-57
2024/02/19 12:11:45;;;;;;;5.80;1.50;;;12.20;99.90;;;;;;5077666;28;20028;-57
2024/02/19 12:14:13;;;;;;;5.65;1.75;;;11.70;99.90;;;;;;5073781;28;20029;-57
2024/02/19 12:16:39;;;;;;;2.45;1.33;;;11.60;99.90;;;;;;5067608;28;20082;-57
2024/02/19 12:19:04;;;;;;;8.65;2.00;;;11.50;99.90;;;;;;5073955;28;20028;-57
2024/02/19 12:21:32;;;;;;;8.73;1.73;;;11.40;99.90;;;;;;5072031;28;20017;-57
2024/02/19 12:24:00;;;;;;;8.48;1.85;;;11.30;99.90;;;;;;5078554;28;20137;-58
2024/02/19 12:26:26;;;;;;;4.93;2.17;;;11.20;99.90;;;;;;5073096;28;20024;-57
2024/02/19 12:28:51;;;;;;;7.95;2.15;;;11.00;99.90;;;;;;5068610;28;20047;-57
2024/02/19 12:31:17;;;;;;;5.90;2.08;;;10.90;99.90;;;;;;5072029;28;20024;-57
2024/02/19 12:33:43;;;;;;;5.05;1.85;;;10.90;99.90;;;;;;5077485;28;20036;-57
2024/02/19 12:36:12;;;;;;;9.25;2.25;;;10.90;99.90;;;;;;5066276;28;20692;-57
2024/02/19 12:38:41;;;;;;;9.52;2.30;;;10.90;99.90;;;;;;5066517;28;20059;-58
2024/02/19 12:41:08;;;;;;;9.18;2.28;;;10.80;99.90;;;;;;5064273;28;20493;-57
2024/02/19 12:43:34;;;;;;;7.00;1.85;;;10.90;99.90;;;;;;5063827;28;20385;-57
2024/02/19 12:46:00;;;;;;;8.73;2.85;;;10.90;99.90;;;;;;5070692;28;20100;-57
2024/02/19 12:48:25;;;;;;;8.10;2.10;;;11.00;99.90;;;;;;5068826;28;20103;-57
2024/02/19 12:50:51;;;;;;;7.38;2.33;;;11.20;99.90;;;;;;5067174;28;20123;-57